Saint Ignatius, MT (59865)

9:29 AM MST on February 12, 2016 (GMT -0700)
Saint Ignatius | | Change Station
CLOSE
Current Station
Personal Weather Station
Location: Saint Ignatius, MT
Elevation: 2818 ft
Nearby Weather Stations

Elev 2818 ft 47.32 °N, 114.14 °W | Updated 28 minutes ago

Rain
Rain
39.7 °F
Feels Like 40 °F
N
0.0
Wind Variable Wind from ENE
Gusts 3.0 mph

Today
High -- | Low -- °F
--% Chance of Precip.
Yesterday
High -- | Low -- °F
Precip. -- in
Pressure 30.23 in
Visibility 0.8 miles
Clouds Few 600 ft
Overcast 6500 ft
Windchill 40 °F
Dew Point 38 °F
Humidity 95%
Rainfall 0.08 in
Snow Depth Not available.
7:46 AM 5:54 PM
Waxing Crescent, 21% visible
SPECI KMSO 121604Z 00000KT 3/4SM BR FEW006 OVC065 02/01 A3023 RMK AO2 T00170011
Pressure 30.23 in
Visibility 0.8 miles
Clouds Few 600 ft
Overcast 6500 ft
Windchill 40 °F
Dew Point 38 °F
Humidity 95%
Rainfall 0.08 in
Snow Depth Not available.
7:46 AM 5:54 PM
Waxing Crescent, 21% visible
SPECI KMSO 121604Z 00000KT 3/4SM BR FEW006 OVC065 02/01 A3023 RMK AO2 T00170011

10-Day Weather Forecast

Almanac

Astronomy

Feb. 12, 2016 Rise Set
Actual Time
Civil Twilight
Nautical Twilight
Astronomical Twilight
Moon
Length of Visible Light
Length of Day
Tomorrow will be .
, % of the Moon is Illuminated

Today's Extremes

State Highs State Lows

Community

WunderPhotos

Upload Photos

1,892,350 photos uploaded!

WunderBlog® & News

Nearby

Air Quality

  Air Quality AQ Index Pollutant
Not available.

Snow Depth

Station Depth Elevation

Earthquake Activity

City Distance Mag. Time & Date
Minimum magnitude displayed is 2.5.

Coastal Water Temperatures

Place Temperature

Stations

Nearby Weather Stations

Station Location Temp. Windchill Dew Point Humidity Wind Precip. Elev Updated Type
                   

Watches & Warnings

There are currently no watches in effect.